Time;durP1;ratioP1;P1;durP2;ratioP2;P2;SDS_P1;SDS_P2;PMS_P1;PMS_P2;Temp;Humidity;BMP_temperature;BMP_pressure;BME280_temperature;BME280_humidity;BME280_pressure;Samples;Min_cycle;Max_cycle;Signal;HPM_P1;HPM_P2
2022/06/23 00:00:29;;;;;;;6.15;3.88;;;;;;;23.35;nan;-24465.31;5034082;28;20294;-62
2022/06/23 00:02:58;;;;;;;10.88;4.13;;;;;;;23.30;nan;-24463.78;5034337;28;20647;-63
2022/06/23 00:05:26;;;;;;;6.20;3.88;;;;;;;23.37;nan;-24465.72;5034244;28;20179;-61
2022/06/23 00:07:56;;;;;;;6.97;3.90;;;;;;;23.46;nan;-24468.22;5034197;28;20324;-62
2022/06/23 00:10:50;;;;;;;9.60;4.40;;;;;;;23.48;nan;-24468.63;5034410;28;20594;-61
2022/06/23 00:13:25;;;;;;;8.00;4.22;;;;;;;23.48;nan;-24468.63;5031807;28;20183;-66
2022/06/23 00:15:52;;;;;;;7.25;4.18;;;;;;;23.23;nan;-24461.84;5033885;28;20236;-65
2022/06/23 00:18:24;;;;;;;8.07;4.15;;;;;;;23.15;nan;-24459.66;5051396;28;20175;-62
2022/06/23 00:21:02;;;;;;;6.32;3.70;;;;;;;23.35;nan;-24465.19;5054554;28;20174;-64
2022/06/23 00:23:38;;;;;;;6.32;3.80;;;;;;;23.10;nan;-24458.41;5045843;28;20319;-62
2022/06/23 00:26:10;;;;;;;7.05;4.28;;;;;;;23.16;nan;-24459.94;5050957;28;20257;-66
2022/06/23 00:28:46;;;;;;;6.05;4.10;;;;;;;23.34;nan;-24464.91;5053444;28;20170;-66
2022/06/23 00:31:39;;;;;;;6.30;3.88;;;;;;;23.31;nan;-24464.19;5053238;28;20194;-62
2022/06/23 00:34:14;;;;;;;11.13;3.90;;;;;;;23.13;nan;-24459.09;5050682;28;20331;-60
2022/06/23 00:36:46;;;;;;;7.20;4.30;;;;;;;23.32;nan;-24464.47;5053407;28;20170;-64
2022/06/23 00:39:20;;;;;;;7.32;4.07;;;;;;;23.46;nan;-24468.22;5053103;28;20163;-62
2022/06/23 00:41:48;;;;;;;8.07;4.32;;;;;;;23.18;nan;-24460.47;5053066;28;20167;-63
2022/06/23 00:44:52;;;;;;;6.25;3.70;;;;;;;23.44;nan;-24467.66;5053172;28;20646;-62
2022/06/23 00:47:25;;;;;;;7.05;3.53;;;;;;;23.27;nan;-24462.97;5053109;28;20604;-64
2022/06/23 00:49:57;;;;;;;8.98;4.53;;;;;;;23.44;nan;-24467.66;5053153;28;20167;-64
2022/06/23 00:52:36;;;;;;;7.07;3.83;;;;;;;23.48;nan;-24468.78;5052943;28;20688;-65
2022/06/23 00:55:10;;;;;;;6.70;3.78;;;;;;;23.39;nan;-24466.13;5053341;28;20189;-65
2022/06/23 00:57:49;;;;;;;5.50;3.35;;;;;;;23.43;nan;-24467.25;5051658;28;20170;-66
2022/06/23 01:00:21;;;;;;;7.60;3.65;;;;;;;23.27;nan;-24463.09;5053191;28;20233;-65
2022/06/23 01:02:56;;;;;;;7.55;3.88;;;;;;;23.27;nan;-24462.97;5052937;28;20538;-65
2022/06/23 01:05:38;;;;;;;5.55;3.13;;;;;;;23.33;nan;-24464.63;5053110;28;20528;-66
2022/06/23 01:08:28;;;;;;;6.90;3.83;;;;;;;23.34;nan;-24464.91;5053256;28;20167;-63
2022/06/23 01:11:10;;;;;;;7.35;4.00;;;;;;;23.17;nan;-24460.19;5052854;28;20277;-62
2022/06/23 01:13:42;;;;;;;9.10;4.32;;;;;;;23.35;nan;-24465.19;5053058;28;20219;-66
2022/06/23 01:16:20;;;;;;;5.40;3.65;;;;;;;23.06;nan;-24457.16;5053305;28;20178;-66
2022/06/23 01:18:55;;;;;;;7.57;3.63;;;;;;;23.14;nan;-24459.50;5053085;28;20178;-66
2022/06/23 01:21:33;;;;;;;9.20;4.15;;;;;;;23.14;nan;-24459.38;5052931;28;20174;-64
2022/06/23 01:24:09;;;;;;;7.28;4.10;;;;;;;23.02;nan;-24456.19;5051418;28;20249;-64
2022/06/23 01:26:59;;;;;;;8.23;4.03;;;;;;;23.05;nan;-24456.88;5053251;28;20166;-63
2022/06/23 01:29:33;;;;;;;9.75;4.00;;;;;;;22.94;nan;-24453.84;5051476;28;20259;-63
2022/06/23 01:32:08;;;;;;;7.40;4.47;;;;;;;23.03;nan;-24456.34;5053036;28;20613;-63
2022/06/23 01:34:46;;;;;;;9.13;4.50;;;;;;;22.81;nan;-24450.38;5052266;28;20173;-64
2022/06/23 01:37:25;;;;;;;7.00;3.85;;;;;;;22.52;nan;-24442.50;5052444;28;20176;-65
2022/06/23 01:40:20;;;;;;;10.10;3.67;;;;;;;22.48;nan;-24441.41;5052527;28;20618;-60
2022/06/23 01:43:10;;;;;;;8.95;4.38;;;;;;;22.68;nan;-24446.78;5052713;28;20159;-62
2022/06/23 01:45:43;;;;;;;6.93;4.40;;;;;;;22.66;nan;-24446.38;5052537;28;20556;-64
2022/06/23 01:48:53;;;;;;;6.22;4.15;;;;;;;22.66;nan;-24446.38;5052310;28;20165;-63
2022/06/23 01:51:43;;;;;;;11.13;4.47;;;;;;;22.43;nan;-24440.16;5052519;28;20194;-64
2022/06/23 01:54:15;;;;;;;10.50;4.60;;;;;;;22.70;nan;-24447.50;5044588;28;20216;-65
2022/06/23 01:56:50;;;;;;;8.38;4.15;;;;;;;22.63;nan;-24445.53;5052011;28;20174;-64
2022/06/23 01:59:18;;;;;;;8.27;4.82;;;;;;;22.72;nan;-24448.03;5052533;28;20184;-63
2022/06/23 02:02:11;;;;;;;6.18;3.97;;;;;;;22.61;nan;-24445.00;5052066;28;20225;-61
2022/06/23 02:05:14;;;;;;;8.45;4.45;;;;;;;22.47;nan;-24441.13;5052906;28;20175;-61
2022/06/23 02:07:39;;;;;;;9.40;4.18;;;;;;;22.43;nan;-24440.00;5056161;28;20244;-64
2022/06/23 02:10:24;;;;;;;7.75;4.60;;;;;;;22.31;nan;-24436.69;5052139;28;20179;-63
2022/06/23 02:12:59;;;;;;;7.30;3.95;;;;;;;22.33;nan;-24437.25;5052053;28;20308;-63
2022/06/23 02:15:34;;;;;;;10.85;4.75;;;;;;;21.92;nan;-24426.16;5051904;28;20621;-61
2022/06/23 02:18:25;;;;;;;7.15;4.25;;;;;;;22.27;nan;-24435.72;5052080;28;20245;-62
2022/06/23 02:20:53;;;;;;;11.85;3.92;;;;;;;22.33;nan;-24437.38;5051855;28;20257;-64
2022/06/23 02:23:30;;;;;;;9.73;4.10;;;;;;;22.34;nan;-24437.53;5051958;28;20182;-63
2022/06/23 02:26:05;;;;;;;7.82;4.38;;;;;;;22.15;nan;-24432.41;5051580;28;20194;-66
2022/06/23 02:28:33;;;;;;;7.90;4.25;;;;;;;22.27;nan;-24435.59;5052096;28;20235;-65
2022/06/23 02:31:14;;;;;;;6.78;4.28;;;;;;;22.16;nan;-24432.53;5051625;28;20542;-64
2022/06/23 02:33:55;;;;;;;7.80;4.05;;;;;;;22.20;nan;-24433.78;5051711;28;20179;-65
2022/06/23 02:36:53;;;;;;;6.53;4.05;;;;;;;22.58;nan;-24444.03;5051925;28;20194;-61
2022/06/23 02:39:29;;;;;;;9.23;4.25;;;;;;;22.43;nan;-24440.00;5051094;28;20237;-64
2022/06/23 02:42:01;;;;;;;10.07;4.15;;;;;;;22.56;nan;-24443.59;5049711;28;20186;-63
2022/06/23 02:44:51;;;;;;;7.75;3.95;;;;;;;22.56;nan;-24443.59;5050370;28;20185;-61
2022/06/23 02:47:22;;;;;;;10.25;4.30;;;;;;;22.46;nan;-24440.97;5051545;28;20190;-62
2022/06/23 02:50:33;;;;;;;8.98;3.92;;;;;;;22.43;nan;-24440.00;5053881;28;20652;-66
2022/06/23 02:53:36;;;;;;;8.38;3.72;;;;;;;22.25;nan;-24435.03;5051221;28;20222;-65
2022/06/23 02:56:31;;;;;;;8.00;3.80;;;;;;;22.50;nan;-24441.94;5054001;28;20190;-65
2022/06/23 02:59:14;;;;;;;7.40;3.80;;;;;;;22.37;nan;-24438.50;5052415;28;20183;-65
2022/06/23 03:02:08;;;;;;;6.53;3.55;;;;;;;22.05;nan;-24429.63;5049369;28;20226;-64
2022/06/23 03:04:42;;;;;;;6.95;3.83;;;;;;;22.31;nan;-24436.69;5054032;28;20254;-62
2022/06/23 03:07:36;;;;;;;6.10;3.55;;;;;;;22.31;nan;-24436.69;5054283;28;20186;-64
2022/06/23 03:10:16;;;;;;;9.75;4.30;;;;;;;22.22;nan;-24434.34;5041392;28;20213;-63
2022/06/23 03:12:54;;;;;;;7.70;4.03;;;;;;;22.10;nan;-24431.03;5048159;28;20286;-66
2022/06/23 03:15:40;;;;;;;8.02;4.20;;;;;;;22.11;nan;-24431.28;5049259;28;20649;-64
2022/06/23 03:18:18;;;;;;;6.72;3.78;;;;;;;22.16;nan;-24432.69;5047654;28;20171;-62
2022/06/23 03:20:58;;;;;;;6.88;3.90;;;;;;;22.20;nan;-24433.66;5046236;28;20182;-64
2022/06/23 03:23:27;;;;;;;7.03;4.13;;;;;;;22.66;nan;-24446.25;5048911;28;20745;-64
2022/06/23 03:26:13;;;;;;;5.43;3.72;;;;;;;22.74;nan;-24448.44;5047305;28;20178;-64
2022/06/23 03:28:54;;;;;;;6.65;4.07;;;;;;;22.86;nan;-24451.91;5048811;28;20256;-61
2022/06/23 03:31:37;;;;;;;9.38;4.28;;;;;;;22.98;nan;-24454.94;5047983;28;20194;-64
2022/06/23 03:34:14;;;;;;;8.70;4.28;;;;;;;23.44;nan;-24467.53;5047723;28;20171;-66
2022/06/23 03:37:03;;;;;;;7.10;3.85;;;;;;;23.71;nan;-24474.97;5048459;28;20468;-65
2022/06/23 03:42:43;;;;;;;11.50;4.38;;;;;;;23.53;nan;-24470.00;5048216;28;20177;-65
2022/06/23 03:45:14;;;;;;;9.13;4.28;;;;;;;23.67;nan;-24474.00;5048463;28;20252;-65
2022/06/23 03:48:25;;;;;;;7.65;4.18;;;;;;;23.62;nan;-24472.50;5047189;28;20190;-65
2022/06/23 03:51:05;;;;;;;7.55;4.30;;;;;;;23.39;nan;-24466.28;5044537;28;20198;-60
2022/06/23 03:53:43;;;;;;;8.65;4.22;;;;;;;23.49;nan;-24468.91;5046075;28;20182;-64
2022/06/23 03:56:21;;;;;;;6.38;4.18;;;;;;;23.50;nan;-24469.19;5055024;28;20272;-62
2022/06/23 03:59:16;;;;;;;9.65;4.57;;;;;;;23.47;nan;-24468.34;5045411;28;20182;-63
2022/06/23 04:02:12;;;;;;;12.15;4.63;;;;;;;23.59;nan;-24471.81;5045797;28;20264;-64
2022/06/23 04:04:57;;;;;;;6.43;3.80;;;;;;;23.73;nan;-24475.53;5045965;28;20190;-65
2022/06/23 04:07:46;;;;;;;6.10;4.00;;;;;;;23.72;nan;-24475.38;5046721;28;20186;-63
2022/06/23 04:10:14;;;;;;;9.57;4.85;;;;;;;24.02;nan;-24483.41;5046987;28;20269;-64
2022/06/23 04:12:46;;;;;;;6.30;3.78;;;;;;;24.22;nan;-24488.91;5046732;28;20223;-65
2022/06/23 04:15:33;;;;;;;7.65;4.20;;;;;;;24.35;nan;-24492.50;5049285;28;20186;-62
2022/06/23 04:18:04;;;;;;;7.75;3.88;;;;;;;24.37;nan;-24492.91;5046539;28;20858;-64
2022/06/23 04:20:40;;;;;;;7.82;4.18;;;;;;;24.64;nan;-24500.50;5050997;28;20597;-63
2022/06/23 04:23:20;;;;;;;7.93;4.20;;;;;;;25.85;nan;-24533.25;5051896;28;20198;-63
2022/06/23 04:25:57;;;;;;;7.45;4.07;;;;;;;26.94;nan;-24562.91;5051303;28;20547;-62
2022/06/23 04:28:27;;;;;;;5.80;3.70;;;;;;;26.81;nan;-24559.34;5050785;28;20269;-62
2022/06/23 04:30:56;;;;;;;7.22;4.00;;;;;;;26.53;nan;-24551.66;5049123;28;20179;-63
2022/06/23 04:33:24;;;;;;;5.85;3.88;;;;;;;26.30;nan;-24545.47;5052857;28;20194;-65
2022/06/23 04:35:59;;;;;;;8.82;3.67;;;;;;;26.32;nan;-24546.03;5052551;28;20178;-63
2022/06/23 04:38:46;;;;;;;8.13;4.18;;;;;;;26.56;nan;-24552.47;5051717;28;20562;-66
2022/06/23 04:41:30;;;;;;;6.57;3.95;;;;;;;26.67;nan;-24555.50;5051113;28;20183;-64
2022/06/23 04:44:01;;;;;;;7.63;3.85;;;;;;;26.59;nan;-24553.31;5051769;28;20194;-65
2022/06/23 04:46:29;;;;;;;9.10;4.57;;;;;;;26.68;nan;-24555.91;5051215;28;20179;-63
2022/06/23 04:49:07;;;;;;;6.60;3.63;;;;;;;27.26;nan;-24571.56;5051233;28;20179;-65
2022/06/23 04:51:38;;;;;;;7.40;4.15;;;;;;;27.81;nan;-24586.50;5046121;28;20206;-64
2022/06/23 04:54:16;;;;;;;7.85;4.22;;;;;;;28.43;nan;-24603.19;5052149;28;20183;-62
2022/06/23 04:56:57;;;;;;;6.55;4.18;;;;;;;28.83;nan;-24614.13;5051044;28;20259;-63
2022/06/23 04:59:28;;;;;;;6.43;3.85;;;;;;;28.54;nan;-24606.22;5050424;28;20271;-63
2022/06/23 05:01:56;;;;;;;7.10;4.53;;;;;;;28.76;nan;-24612.09;5050630;28;20292;-64
2022/06/23 05:05:17;;;;;;;8.70;4.03;;;;;;;29.05;nan;-24619.88;5050961;28;20749;-64
2022/06/23 05:07:52;;;;;;;7.22;3.38;;;;;;;29.37;nan;-24628.75;5025031;28;20234;-61
2022/06/23 05:10:37;;;;;;;5.88;3.92;;;;;;;30.22;nan;-24651.53;5051667;28;20177;-63
2022/06/23 05:13:12;;;;;;;5.57;3.85;;;;;;;30.45;nan;-24657.66;5050452;28;20205;-63
2022/06/23 05:15:45;;;;;;;9.52;4.05;;;;;;;29.85;nan;-24641.59;5045895;28;20263;-63
2022/06/23 05:18:17;;;;;;;7.65;4.25;;;;;;;29.66;nan;-24636.53;5050615;28;20181;-63
2022/06/23 05:21:09;;;;;;;5.43;3.53;;;;;;;29.21;nan;-24624.25;5050592;28;20645;-65
2022/06/23 05:23:50;;;;;;;8.18;4.32;;;;;;;29.24;nan;-24625.19;5047126;28;20182;-61
2022/06/23 05:26:30;;;;;;;6.00;3.75;;;;;;;29.43;nan;-24630.25;5048919;28;20190;-62
2022/06/23 05:29:01;;;;;;;10.35;4.40;;;;;;;29.92;nan;-24643.50;5050150;28;20711;-64
2022/06/23 05:31:33;;;;;;;5.40;3.70;;;;;;;29.39;nan;-24629.16;5050773;28;20213;-60
2022/06/23 05:34:08;;;;;;;6.70;3.55;;;;;;;29.50;nan;-24632.03;5050216;28;20177;-61
2022/06/23 05:36:50;;;;;;;4.88;3.28;;;;;;;29.54;nan;-24633.25;5047832;28;20186;-62
2022/06/23 05:39:28;;;;;;;8.18;3.75;;;;;;;29.38;nan;-24628.91;5050947;28;20170;-65
2022/06/23 05:41:58;;;;;;;5.13;3.13;;;;;;;30.23;nan;-24651.81;5050186;28;20242;-65
2022/06/23 05:44:43;;;;;;;5.13;3.30;;;;;;;30.39;nan;-24656.03;5057154;28;20243;-65
2022/06/23 05:47:12;;;;;;;4.50;2.97;;;;;;;30.22;nan;-24651.69;5049400;28;20205;-64
2022/06/23 05:49:46;;;;;;;5.78;3.22;;;;;;;30.02;nan;-24646.09;5050179;28;20186;-64
2022/06/23 05:52:37;;;;;;;4.47;2.90;;;;;;;29.39;nan;-24629.31;5050526;28;20301;-64
2022/06/23 05:55:27;;;;;;;5.10;3.17;;;;;;;29.56;nan;-24633.66;5050308;28;20174;-62
2022/06/23 05:57:56;;;;;;;6.85;3.97;;;;;;;30.07;nan;-24647.44;5049031;28;20549;-61
2022/06/23 06:00:37;;;;;;;4.13;2.95;;;;;;;29.49;nan;-24631.75;5050287;28;20677;-64
2022/06/23 06:03:11;;;;;;;6.20;3.85;;;;;;;29.90;nan;-24642.81;5050037;28;20185;-62
2022/06/23 06:05:43;;;;;;;7.38;3.90;;;;;;;29.80;nan;-24640.34;5046938;28;20502;-65
2022/06/23 06:08:16;;;;;;;5.32;3.08;;;;;;;29.81;nan;-24640.63;5050002;28;20177;-64
2022/06/23 06:10:42;;;;;;;7.40;3.15;;;;;;;29.55;nan;-24633.41;5050384;28;20174;-64
2022/06/23 06:13:14;;;;;;;6.05;3.38;;;;;;;29.66;nan;-24636.53;5050190;28;20218;-62
2022/06/23 06:15:46;;;;;;;6.05;2.97;;;;;;;29.62;nan;-24635.44;5047610;28;20244;-62
2022/06/23 06:18:17;;;;;;;4.80;2.88;;;;;;;29.92;nan;-24643.50;5050317;28;20186;-63
2022/06/23 06:20:43;;;;;;;6.13;3.25;;;;;;;29.80;nan;-24640.34;5049439;28;20247;-67
2022/06/23 06:23:32;;;;;;;8.35;3.20;;;;;;;29.94;nan;-24643.91;5050271;28;20190;-64
2022/06/23 06:25:58;;;;;;;6.65;2.80;;;;;;;30.19;nan;-24650.88;5050154;28;20211;-65
2022/06/23 06:28:33;;;;;;;5.85;3.10;;;;;;;29.62;nan;-24635.44;5051088;28;20239;-61
2022/06/23 06:31:17;;;;;;;5.32;3.13;;;;;;;29.47;nan;-24631.34;5049328;28;20655;-65
2022/06/23 06:34:09;;;;;;;3.38;2.70;;;;;;;29.49;nan;-24631.75;5049694;28;20232;-62
2022/06/23 06:36:41;;;;;;;6.90;3.20;;;;;;;29.31;nan;-24627.00;5046517;28;20181;-62
2022/06/23 06:39:12;;;;;;;5.10;3.47;;;;;;;29.49;nan;-24631.91;5048138;28;20580;-60
2022/06/23 06:41:40;;;;;;;5.68;3.30;;;;;;;29.29;nan;-24626.44;5046660;28;20186;-64
2022/06/23 06:44:06;;;;;;;5.55;3.25;;;;;;;29.32;nan;-24627.25;5049587;28;20293;-63
2022/06/23 06:46:31;;;;;;;5.30;3.25;;;;;;;29.35;nan;-24628.06;5050716;28;20209;-63
2022/06/23 06:48:59;;;;;;;9.68;3.50;;;;;;;29.06;nan;-24620.28;5049669;28;20182;-65
2022/06/23 06:51:26;;;;;;;4.47;2.83;;;;;;;28.58;nan;-24607.16;5049828;28;20202;-62
2022/06/23 06:53:58;;;;;;;6.28;3.45;;;;;;;28.12;nan;-24594.84;5050046;28;20213;-63
2022/06/23 06:56:46;;;;;;;7.32;3.63;;;;;;;27.60;nan;-24580.75;5050001;28;20194;-62
2022/06/23 06:59:44;;;;;;;5.22;3.08;;;;;;;27.42;nan;-24575.81;5049095;28;20182;-62
2022/06/23 07:02:20;;;;;;;7.28;3.92;;;;;;;26.78;nan;-24558.66;5028490;28;20258;-61
2022/06/23 07:04:52;;;;;;;4.57;3.47;;;;;;;25.98;nan;-24536.69;5049357;28;20182;-64
2022/06/23 07:07:23;;;;;;;7.90;3.60;;;;;;;25.71;nan;-24529.41;5048248;28;20726;-62
2022/06/23 07:09:59;;;;;;;7.20;3.53;;;;;;;24.83;nan;-24505.59;5049701;28;20638;-64
2022/06/23 07:12:33;;;;;;;5.15;3.47;;;;;;;24.27;nan;-24490.28;5048260;28;20296;-64
2022/06/23 07:15:14;;;;;;;5.95;3.63;;;;;;;23.63;nan;-24472.78;5049235;28;20614;-62
2022/06/23 07:17:55;;;;;;;6.85;3.80;;;;;;;22.90;nan;-24453.00;5045940;28;20658;-64
2022/06/23 07:20:32;;;;;;;9.05;4.00;;;;;;;22.59;nan;-24444.44;5051064;28;20197;-63
2022/06/23 07:23:00;;;;;;;7.68;3.90;;;;;;;22.19;nan;-24433.50;5048338;28;20273;-63
2022/06/23 07:25:49;;;;;;;7.80;4.10;;;;;;;22.24;nan;-24434.88;5051204;28;20217;-63
2022/06/23 07:28:40;;;;;;;7.90;3.95;;;;;;;22.21;nan;-24433.94;5053428;28;20179;-62
2022/06/23 07:31:29;;;;;;;7.53;4.00;;;;;;;21.95;nan;-24427.00;5063823;28;20330;-62
2022/06/23 07:34:04;;;;;;;6.35;3.58;;;;;;;21.60;nan;-24417.31;5051480;28;20186;-66
2022/06/23 07:36:37;;;;;;;11.23;3.78;;;;;;;21.55;nan;-24415.91;5053895;28;20252;-65
2022/06/23 07:39:08;;;;;;;7.50;3.67;;;;;;;21.65;nan;-24418.69;5054607;28;20178;-65
2022/06/23 07:41:39;;;;;;;6.32;3.97;;;;;;;21.25;nan;-24407.75;5054218;28;20183;-63
2022/06/23 07:44:29;;;;;;;7.63;4.10;;;;;;;21.43;nan;-24412.72;5054547;28;20204;-63
2022/06/23 07:46:55;;;;;;;6.15;4.18;;;;;;;21.32;nan;-24409.69;5053118;28;20237;-66
2022/06/23 07:49:21;;;;;;;8.48;4.10;;;;;;;21.31;nan;-24409.28;5053041;28;20179;-64
2022/06/23 07:51:47;;;;;;;9.30;4.63;;;;;;;21.13;nan;-24404.41;5053784;28;20252;-62
2022/06/23 07:54:18;;;;;;;6.82;3.85;;;;;;;21.09;nan;-24403.44;5053905;28;20656;-65
2022/06/23 07:56:44;;;;;;;10.77;4.03;;;;;;;21.30;nan;-24409.13;5049872;28;20232;-63
2022/06/23 07:59:16;;;;;;;7.45;4.22;;;;;;;20.87;nan;-24397.19;5053541;28;20194;-66
2022/06/23 08:01:48;;;;;;;5.25;3.28;;;;;;;21.26;nan;-24407.88;5053510;28;20222;-65
2022/06/23 08:05:03;;;;;;;6.28;3.85;;;;;;;21.29;nan;-24408.84;5053610;28;20174;-62
2022/06/23 08:07:30;;;;;;;9.82;3.92;;;;;;;21.35;nan;-24410.38;5042389;28;20190;-63
2022/06/23 08:10:00;;;;;;;7.00;3.20;;;;;;;21.28;nan;-24408.56;5052029;28;20236;-64
2022/06/23 08:18:38;;;;;;;6.75;3.72;;;;;;;21.24;nan;-24407.47;5052072;28;20217;-63
2022/06/23 08:21:14;;;;;;;5.93;3.67;;;;;;;21.17;nan;-24405.53;5049772;28;22120;-64
2022/06/23 08:23:51;;;;;;;6.28;3.78;;;;;;;21.24;nan;-24407.31;5051902;28;20265;-61
2022/06/23 08:26:18;;;;;;;7.68;4.28;;;;;;;21.45;nan;-24413.16;5051516;28;20541;-62
2022/06/23 08:28:47;;;;;;;8.00;4.57;;;;;;;21.54;nan;-24415.66;5048911;28;20270;-64
2022/06/23 08:31:13;;;;;;;6.53;4.10;;;;;;;;;;5051940;28;20218;-61
2022/06/23 08:33:39;;;;;;;11.38;3.67;;;;;;;21.50;nan;-24414.53;5052261;28;20185;-66
2022/06/23 08:36:11;;;;;;;5.55;3.88;;;;;;;21.58;nan;-24416.75;5052240;28;20179;-64
2022/06/23 08:39:04;;;;;;;9.27;3.70;;;;;;;21.07;nan;-24402.75;5051625;28;20478;-62
2022/06/23 08:41:35;;;;;;;5.78;3.67;;;;;;;20.57;nan;-24389.00;5052425;28;20590;-62
2022/06/23 08:44:11;;;;;;;7.22;4.05;;;;;;;19.82;nan;-24368.59;5051262;28;20239;-64
2022/06/23 08:46:49;;;;;;;7.93;4.30;;;;;;;20.26;nan;-24380.69;5051034;28;20183;-60
2022/06/23 08:49:17;;;;;;;9.30;3.85;;;;;;;20.21;nan;-24379.28;5043864;28;20178;-61
2022/06/23 08:52:07;;;;;;;7.25;4.40;;;;;;;20.10;nan;-24376.09;5047933;28;20280;-62
2022/06/23 08:54:56;;;;;;;9.70;4.22;;;;;;;19.98;nan;-24372.91;5050590;28;20202;-64
2022/06/23 08:57:26;;;;;;;7.07;3.92;;;;;;;19.92;nan;-24371.22;5046095;28;20285;-61
2022/06/23 08:59:55;;;;;;;8.65;4.40;;;;;;;19.98;nan;-24372.75;5051138;28;20654;-60
2022/06/23 09:02:28;;;;;;;9.95;4.97;;;;;;;;;;5048757;28;20179;-61
2022/06/23 09:05:08;;;;;;;6.68;4.25;;;;;;;19.92;nan;-24371.22;5050933;28;20635;-63
2022/06/23 09:07:46;;;;;;;6.28;4.45;;;;;;;19.99;nan;-24373.19;5050390;28;20179;-62
2022/06/23 09:10:26;;;;;;;10.95;4.95;;;;;;;19.92;nan;-24371.22;5050220;28;20190;-63
2022/06/23 09:13:06;;;;;;;7.32;4.45;;;;;;;19.78;nan;-24367.47;5048567;28;20234;-63
2022/06/23 09:15:46;;;;;;;9.88;4.93;;;;;;;20.00;nan;-24373.31;5052502;28;20185;-61
2022/06/23 09:18:23;;;;;;;10.65;4.75;;;;;;;20.13;nan;-24377.06;5050731;28;20194;-60
2022/06/23 09:21:10;;;;;;;11.07;5.03;;;;;;;20.28;nan;-24381.09;5048063;28;20198;-60
2022/06/23 09:23:47;;;;;;;8.57;4.50;;;;;;;20.39;nan;-24384.03;5049902;28;20182;-61
2022/06/23 09:26:19;;;;;;;8.27;4.88;;;;;;;20.25;nan;-24380.41;5051289;28;20332;-61
2022/06/23 09:28:53;;;;;;;13.48;5.05;;;;;;;20.80;nan;-24395.41;5047753;28;20669;-64
2022/06/23 09:31:24;;;;;;;7.82;4.68;;;;;;;20.58;nan;-24389.28;5050852;28;20202;-63
2022/06/23 09:34:12;;;;;;;7.60;4.55;;;;;;;21.03;nan;-24401.63;5050057;28;20189;-61
2022/06/23 09:36:38;;;;;;;11.13;5.07;;;;;;;21.22;nan;-24406.91;5049903;28;20178;-65
2022/06/23 09:39:18;;;;;;;9.85;4.93;;;;;;;21.43;nan;-24412.59;5050230;28;20278;-60
2022/06/23 09:42:05;;;;;;;12.57;4.95;;;;;;;21.59;nan;-24417.03;5047375;28;20198;-65
2022/06/23 09:44:50;;;;;;;7.18;4.80;;;;;;;21.85;nan;-24424.22;5048268;28;20178;-60
2022/06/23 09:47:35;;;;;;;9.15;5.65;;;;;;;22.74;nan;-24448.44;5050032;28;20185;-61
2022/06/23 09:50:19;;;;;;;8.00;5.00;;;;;;;23.45;nan;-24467.94;5047845;28;20285;-62
2022/06/23 09:52:57;;;;;;;7.65;4.63;;;;;;;24.62;nan;-24499.94;5050514;28;20202;-64
2022/06/23 09:56:10;;;;;;;7.30;4.75;;;;;;;24.90;nan;-24507.38;5048413;28;20178;-61
2022/06/23 09:58:47;;;;;;;11.70;4.43;;;;;;;24.91;nan;-24507.66;5044349;28;20190;-63
2022/06/23 10:01:24;;;;;;;7.10;4.35;;;;;;;24.87;nan;-24506.56;5049809;28;20217;-61
2022/06/23 10:04:27;;;;;;;6.53;4.57;;;;;;;25.06;nan;-24511.91;5047195;28;20646;-64
2022/06/23 10:07:13;;;;;;;6.93;4.40;;;;;;;25.52;nan;-24524.44;5044619;28;20198;-65
2022/06/23 10:09:48;;;;;;;6.55;4.05;;;;;;;25.82;nan;-24532.44;5045196;28;20583;-63
2022/06/23 10:12:39;;;;;;;6.35;3.78;;;;;;;26.23;nan;-24543.69;5046019;28;20197;-65
2022/06/23 10:15:23;;;;;;;7.65;3.88;;;;;;;26.55;nan;-24552.22;5038113;28;20210;-61
2022/06/23 10:18:09;;;;;;;6.13;3.72;;;;;;;26.77;nan;-24558.25;5045134;28;20210;-63
2022/06/23 10:20:55;;;;;;;7.57;3.83;;;;;;;26.46;nan;-24549.88;5046909;28;20174;-65
2022/06/23 10:23:50;;;;;;;7.28;3.80;;;;;;;26.53;nan;-24551.66;5049574;28;20615;-64
2022/06/23 10:26:18;;;;;;;6.15;4.05;;;;;;;26.34;nan;-24546.72;5050276;28;20194;-66
2022/06/23 10:28:57;;;;;;;6.13;3.90;;;;;;;25.93;nan;-24535.44;5051074;28;20497;-64
2022/06/23 10:31:47;;;;;;;5.68;3.63;;;;;;;25.83;nan;-24532.84;5050383;28;20210;-65
2022/06/23 10:34:41;;;;;;;7.13;4.05;;;;;;;25.85;nan;-24533.38;5049719;28;20827;-63
2022/06/23 10:37:22;;;;;;;6.00;3.72;;;;;;;25.80;nan;-24532.00;4995014;28;20612;-63
2022/06/23 10:40:06;;;;;;;5.80;3.78;;;;;;;25.66;nan;-24528.03;5050204;28;20654;-65
2022/06/23 10:42:50;;;;;;;7.55;4.35;;;;;;;25.48;nan;-24523.34;5044927;28;20257;-65
2022/06/23 10:45:50;;;;;;;5.80;3.75;;;;;;;25.26;nan;-24517.28;5050135;28;20183;-62
2022/06/23 10:48:26;;;;;;;8.05;4.35;;;;;;;25.50;nan;-24523.91;5049676;28;20186;-62
2022/06/23 10:51:13;;;;;;;7.38;4.13;;;;;;;25.27;nan;-24517.44;5050134;28;20185;-62
2022/06/23 10:54:07;;;;;;;5.53;4.10;;;;;;;24.80;nan;-24504.75;5048866;28;20178;-62
2022/06/23 10:57:05;;;;;;;10.73;4.95;;;;;;;24.13;nan;-24486.44;5049627;28;20221;-61
2022/06/23 10:59:58;;;;;;;12.02;5.07;;;;;;;23.92;nan;-24480.78;5049046;28;20179;-63
2022/06/23 11:02:51;;;;;;;7.18;4.50;;;;;;;24.97;nan;-24509.31;5049738;28;20195;-63
2022/06/23 11:05:56;;;;;;;9.27;4.88;;;;;;;25.21;nan;-24515.78;5048969;28;20187;-64
2022/06/23 11:08:36;;;;;;;13.85;5.22;;;;;;;25.53;nan;-24524.72;5043466;28;20182;-63
2022/06/23 11:11:22;;;;;;;7.88;4.53;;;;;;;25.79;nan;-24531.75;5050276;28;20243;-62
2022/06/23 11:14:19;;;;;;;6.45;4.68;;;;;;;26.30;nan;-24545.47;5052537;28;20601;-62
2022/06/23 11:16:58;;;;;;;7.18;4.18;;;;;;;26.98;nan;-24563.88;5052179;28;20174;-65
2022/06/23 11:19:33;;;;;;;6.20;4.30;;;;;;;26.79;nan;-24558.94;5052508;28;20540;-62
2022/06/23 11:22:42;;;;;;;7.78;4.13;;;;;;;26.89;nan;-24561.56;5050224;28;20213;-66
2022/06/23 11:25:42;;;;;;;8.20;4.60;;;;;;;27.17;nan;-24569.09;5050515;28;20673;-65
2022/06/23 11:28:22;;;;;;;9.13;3.92;;;;;;;26.36;nan;-24547.28;5051455;28;20552;-63
2022/06/23 11:31:05;;;;;;;9.45;4.25;;;;;;;26.24;nan;-24543.84;5051511;28;20610;-64
2022/06/23 11:34:05;;;;;;;6.57;4.38;;;;;;;25.95;nan;-24536.00;5052411;28;20185;-62
2022/06/23 11:36:42;;;;;;;5.85;4.32;;;;;;;26.65;nan;-24554.97;5051175;28;20214;-63
2022/06/23 11:39:26;;;;;;;8.05;4.43;;;;;;;26.73;nan;-24557.16;5052118;28;20206;-62
2022/06/23 11:42:06;;;;;;;6.85;4.15;;;;;;;27.20;nan;-24570.06;5051801;28;20559;-63
2022/06/23 11:45:14;;;;;;;7.47;4.20;;;;;;;27.56;nan;-24579.66;5051693;28;20676;-65
2022/06/23 11:48:03;;;;;;;6.53;4.32;;;;;;;28.02;nan;-24592.25;5050001;28;20174;-62
2022/06/23 11:50:39;;;;;;;7.15;4.22;;;;;;;26.91;nan;-24562.09;5049821;28;20657;-62
2022/06/23 11:53:56;;;;;;;4.85;3.33;;;;;;;27.52;nan;-24578.56;5050844;28;20206;-65
2022/06/23 11:56:55;;;;;;;5.68;3.60;;;;;;;26.95;nan;-24563.19;5017166;28;20191;-66
2022/06/23 11:59:51;;;;;;;8.07;3.63;;;;;;;26.70;nan;-24556.47;5025983;28;20213;-65
2022/06/23 12:02:17;;;;;;;4.68;3.33;;;;;;;27.01;nan;-24564.84;5050569;28;20186;-63
2022/06/23 12:05:03;;;;;;;5.32;3.42;;;;;;;27.45;nan;-24576.63;5051568;28;20599;-62
2022/06/23 12:07:41;;;;;;;5.22;3.40;;;;;;;27.42;nan;-24575.94;5051114;28;20650;-62
2022/06/23 12:10:20;;;;;;;5.57;3.45;;;;;;;27.58;nan;-24580.34;5050352;28;21182;-62
2022/06/23 12:12:49;;;;;;;6.47;3.50;;;;;;;28.08;nan;-24593.88;5049908;28;20198;-62
2022/06/23 12:15:23;;;;;;;4.38;3.10;;;;;;;27.50;nan;-24578.00;5051497;28;20170;-61
2022/06/23 12:17:59;;;;;;;4.18;2.97;;;;;;;27.94;nan;-24589.91;5047288;28;20186;-62
2022/06/23 12:20:43;;;;;;;6.50;3.25;;;;;;;27.33;nan;-24573.34;5052635;28;20194;-61
2022/06/23 12:23:27;;;;;;;5.80;3.28;;;;;;;28.24;nan;-24598.13;5049648;28;20193;-65
2022/06/23 12:25:52;;;;;;;4.82;3.40;;;;;;;28.43;nan;-24603.19;5049690;28;20186;-64
2022/06/23 12:28:29;;;;;;;4.93;2.75;;;;;;;27.57;nan;-24580.06;5050874;28;20202;-64
2022/06/23 12:31:29;;;;;;;4.82;3.08;;;;;;;27.93;nan;-24589.66;5048311;28;20269;-63
2022/06/23 12:34:03;;;;;;;6.60;3.58;;;;;;;27.31;nan;-24572.78;5042566;28;20194;-64
2022/06/23 12:36:41;;;;;;;4.45;3.03;;;;;;;26.55;nan;-24552.22;5051586;28;20185;-63
2022/06/23 12:39:18;;;;;;;8.63;3.70;;;;;;;26.69;nan;-24556.06;5048723;28;20233;-62
2022/06/23 12:41:50;;;;;;;5.63;3.55;;;;;;;26.44;nan;-24549.19;5049217;28;20195;-62
2022/06/23 12:44:21;;;;;;;7.60;3.67;;;;;;;26.60;nan;-24553.72;5052073;28;20187;-64
2022/06/23 12:46:59;;;;;;;5.25;3.33;;;;;;;27.08;nan;-24566.75;5049282;28;20278;-59
2022/06/23 12:49:25;;;;;;;5.03;3.20;;;;;;;27.41;nan;-24575.66;5050549;28;20213;-64